Coy City, Texas
Current Conditions -  °F | °C
As of 10:55 PM on Sunday 21 Dec 2014 (Local Time) from KPEZ Reporting Station
Overcast Overcast  
Wind Chill: 56°   Ceiling: 900
Heat Index: 56°   Visibility: 10mi
Dew Point: 55°   Wind: 3mph
Humidity: 94%   Direction: 150°SSE
Pressure: 29.88"   Gusts: NA
Location:  28.8496°N, 97.9656°W
Report Text: KPEZ 220455Z AUTO 15003KT 10SM BKN009 OVC021 14/13 A2988 RMK AO2 T01350126
Loading
Personal Weather Stations






























Interactive Weather Map New forecast layout! Learn more

10-Day Weather Forecast

Advertisements
Track Severe Weather on mobile